createdAt,value
2022-12-15T00:01:09.580Z,100283.94
2022-12-15T00:05:39.811Z,100281.03
2022-12-15T00:10:10.052Z,100274.28
2022-12-15T00:14:40.197Z,100271.94
2022-12-15T00:19:10.368Z,100293.59
2022-12-15T00:23:40.435Z,100290.00
2022-12-15T00:28:10.528Z,100292.50
2022-12-15T00:32:41.244Z,100298.44
2022-12-15T00:37:11.336Z,100310.41
2022-12-15T00:41:24.086Z,100302.28
2022-12-15T00:45:54.404Z,100285.59
2022-12-15T00:50:24.478Z,100294.97
2022-12-15T00:54:54.530Z,100283.53
2022-12-15T00:59:24.661Z,100282.00
2022-12-15T01:03:54.797Z,100296.63
2022-12-15T01:08:24.958Z,100300.75
2022-12-15T01:12:55.242Z,100306.13
2022-12-15T01:17:25.415Z,100318.94
2022-12-15T01:21:36.901Z,100310.81
2022-12-15T01:25:51.152Z,100327.09
2022-12-15T01:30:03.681Z,100312.88
2022-12-15T01:34:15.226Z,100331.78
2022-12-15T01:38:28.494Z,100331.34
2022-12-15T01:42:40.197Z,100342.09
2022-12-15T01:46:55.202Z,100338.78
2022-12-15T01:51:13.351Z,100327.88
2022-12-15T01:55:28.360Z,100343.59
2022-12-15T01:59:46.218Z,100348.53
2022-12-15T02:03:57.840Z,100356.56
2022-12-15T02:08:10.109Z,100368.00
2022-12-15T02:12:46.699Z,100353.50
2022-12-15T02:17:06.288Z,100363.97
2022-12-15T02:21:30.624Z,100358.88
2022-12-15T02:25:57.272Z,100351.66
2022-12-15T02:30:15.285Z,100360.66
2022-12-15T02:35:08.702Z,100344.78
2022-12-15T02:39:20.313Z,100358.84
2022-12-15T02:43:37.086Z,100357.03
2022-12-15T02:48:09.895Z,100353.63
2022-12-15T02:52:58.996Z,100364.63
2022-12-15T02:57:28.859Z,100362.97
2022-12-15T03:01:52.033Z,100363.41
2022-12-15T03:06:04.365Z,100362.44
2022-12-15T03:10:16.304Z,100365.06
2022-12-15T03:14:28.185Z,100371.25
2022-12-15T03:18:39.983Z,100375.91
2022-12-15T03:22:51.587Z,100375.66
2022-12-15T03:27:04.547Z,100390.94
2022-12-15T03:31:16.210Z,100385.31
2022-12-15T03:35:27.877Z,100382.81
2022-12-15T03:39:39.446Z,100389.84
2022-12-15T03:43:50.989Z,100403.63
2022-12-15T03:48:02.630Z,100389.41
2022-12-15T03:52:14.171Z,100383.47
2022-12-15T03:56:25.880Z,100388.28
2022-12-15T04:00:37.739Z,100394.31
2022-12-15T04:04:49.356Z,100403.00
2022-12-15T04:09:01.097Z,100389.50
2022-12-15T04:13:12.844Z,100393.19
2022-12-15T04:17:24.493Z,100394.03
2022-12-15T04:21:36.173Z,100393.44
2022-12-15T04:26:06.484Z,100400.09
2022-12-15T04:30:36.673Z,100403.09
2022-12-15T04:35:06.991Z,100402.13
2022-12-15T04:39:37.654Z,100400.59
2022-12-15T04:44:07.821Z,100401.69
2022-12-15T04:48:38.011Z,100401.13
2022-12-15T04:53:08.091Z,100408.56
2022-12-15T04:57:38.200Z,100404.72
2022-12-15T05:02:08.424Z,100408.00
2022-12-15T05:06:38.460Z,100407.88
2022-12-15T05:11:08.644Z,100409.28
2022-12-15T05:15:38.921Z,100400.56
2022-12-15T05:20:09.238Z,100406.88
2022-12-15T05:24:39.334Z,100413.78
2022-12-15T05:29:09.608Z,100410.19
2022-12-15T05:33:21.299Z,100420.78
2022-12-15T05:37:32.906Z,100432.66
2022-12-15T05:41:45.082Z,100415.56
2022-12-15T05:45:56.744Z,100426.47
2022-12-15T05:50:08.907Z,100443.44
2022-12-15T05:54:20.632Z,100452.81
2022-12-15T05:58:32.224Z,100449.88
2022-12-15T06:02:43.806Z,100450.84
2022-12-15T06:06:55.397Z,100454.94
2022-12-15T06:11:07.455Z,100457.53
2022-12-15T06:15:19.073Z,100456.59
2022-12-15T06:19:30.904Z,100464.19
2022-12-15T06:23:42.635Z,100453.16
2022-12-15T06:27:58.446Z,100465.28
2022-12-15T06:32:13.275Z,100476.31
2022-12-15T06:36:25.130Z,100458.88
2022-12-15T06:40:38.288Z,100479.44
2022-12-15T06:44:50.094Z,100461.63
2022-12-15T06:49:02.216Z,100471.13
2022-12-15T06:53:15.395Z,100478.47
2022-12-15T06:57:27.003Z,100490.72
2022-12-15T07:01:38.891Z,100480.63
2022-12-15T07:06:02.374Z,100485.50
2022-12-15T07:10:14.102Z,100481.59
2022-12-15T07:14:26.714Z,100487.53
2022-12-15T07:18:38.906Z,100484.22
2022-12-15T07:22:51.781Z,100490.53
2022-12-15T07:27:03.393Z,100497.41
2022-12-15T07:31:15.708Z,100502.78
2022-12-15T07:35:27.439Z,100500.56
2022-12-15T07:39:38.984Z,100517.50
2022-12-15T07:43:50.452Z,100509.78
2022-12-15T07:48:02.024Z,100511.19
2022-12-15T07:52:14.091Z,100518.22
2022-12-15T07:56:25.651Z,100528.91
2022-12-15T08:00:37.230Z,100522.59
2022-12-15T08:04:49.170Z,100521.63
2022-12-15T08:09:00.633Z,100526.75
2022-12-15T08:13:31.376Z,100543.34
2022-12-15T08:17:46.473Z,100550.41
2022-12-15T08:21:58.447Z,100551.47
2022-12-15T08:26:12.483Z,100541.56
2022-12-15T08:30:24.496Z,100546.97
2022-12-15T08:34:36.105Z,100546.94
2022-12-15T08:38:47.754Z,100560.78
2022-12-15T08:42:59.216Z,100558.72
2022-12-15T08:47:10.730Z,100562.78
2022-12-15T08:51:25.767Z,100569.72
2022-12-15T08:55:37.303Z,100565.13
2022-12-15T08:59:49.004Z,100559.63
2022-12-15T09:04:01.323Z,100563.69
2022-12-15T09:08:13.012Z,100571.88
2022-12-15T09:12:28.247Z,100558.78
2022-12-15T09:16:39.813Z,100574.69
2022-12-15T09:20:51.497Z,100570.84
2022-12-15T09:25:04.476Z,100589.63
2022-12-15T09:29:16.296Z,100590.75
2022-12-15T09:33:28.022Z,100585.47
2022-12-15T09:37:39.964Z,100587.41
2022-12-15T09:42:00.746Z,100596.53
2022-12-15T09:46:50.707Z,100607.44
2022-12-15T09:51:05.453Z,100613.75
2022-12-15T09:55:37.337Z,100615.88
2022-12-15T10:00:26.074Z,100610.50
2022-12-15T10:04:43.590Z,100612.00
2022-12-15T10:09:10.108Z,100595.59
2022-12-15T10:13:47.390Z,100607.44
2022-12-15T10:18:46.394Z,100612.69
2022-12-15T10:23:14.044Z,100598.91
2022-12-15T10:27:50.393Z,100602.06
2022-12-15T10:32:16.312Z,100607.19
2022-12-15T10:36:27.884Z,100617.53
2022-12-15T10:40:55.570Z,100607.34
2022-12-15T10:45:33.072Z,100614.84
2022-12-15T10:49:44.850Z,100598.31
2022-12-15T10:54:13.196Z,100604.78
2022-12-15T10:58:24.920Z,100609.31
2022-12-15T11:02:37.344Z,100597.09
2022-12-15T11:06:56.484Z,100590.66
2022-12-15T11:11:45.236Z,100607.09
2022-12-15T11:15:57.148Z,100614.66
2022-12-15T11:20:18.383Z,100608.41
2022-12-15T11:25:12.433Z,100616.72
2022-12-15T11:29:23.975Z,100601.56
2022-12-15T11:33:36.091Z,100601.56
2022-12-15T11:38:03.568Z,100589.38
2022-12-15T11:42:30.259Z,100594.50
2022-12-15T11:46:51.796Z,100591.84
2022-12-15T11:51:17.644Z,100601.78
2022-12-15T11:55:47.436Z,100596.34
2022-12-15T12:00:09.001Z,100600.94
2022-12-15T12:04:43.482Z,100594.16
2022-12-15T12:09:10.208Z,100593.72
2022-12-15T12:13:38.168Z,100579.00
2022-12-15T12:17:53.144Z,100588.09
2022-12-15T12:22:14.942Z,100594.03
2022-12-15T12:26:37.821Z,100587.09
2022-12-15T12:30:50.504Z,100589.25
2022-12-15T12:35:38.361Z,100586.75
2022-12-15T12:39:54.052Z,100570.91
2022-12-15T12:44:21.837Z,100568.56
2022-12-15T12:48:58.733Z,100575.34
2022-12-15T12:53:32.616Z,100574.53
2022-12-15T12:57:45.808Z,100565.63
2022-12-15T13:02:18.661Z,100564.91
2022-12-15T13:06:36.531Z,100559.59
2022-12-15T13:10:50.786Z,100555.25
2022-12-15T13:15:18.554Z,100563.31
2022-12-15T13:19:58.164Z,100549.91
2022-12-15T13:24:35.727Z,100543.28
2022-12-15T13:28:50.738Z,100547.09
2022-12-15T13:33:18.350Z,100545.81
2022-12-15T13:38:03.140Z,100543.50
2022-12-15T13:42:33.040Z,100531.44
2022-12-15T13:46:47.640Z,100511.91
2022-12-15T13:51:18.263Z,100510.94
2022-12-15T13:55:38.239Z,100516.59
2022-12-15T14:00:18.771Z,100516.94
2022-12-15T14:04:30.433Z,100527.22
2022-12-15T14:08:42.994Z,100519.94
2022-12-15T14:12:57.563Z,100510.06
2022-12-15T14:17:14.057Z,100515.34
2022-12-15T14:21:30.355Z,100504.97
2022-12-15T14:25:52.872Z,100499.03
2022-12-15T14:30:14.013Z,100517.53
2022-12-15T14:34:29.163Z,100503.00
2022-12-15T14:38:45.966Z,100503.47
2022-12-15T14:42:57.821Z,100510.09
2022-12-15T14:47:23.536Z,100495.56
2022-12-15T14:51:42.972Z,100493.88
2022-12-15T14:55:54.919Z,100485.47
2022-12-15T15:00:29.919Z,100493.22
2022-12-15T15:04:41.689Z,100485.97
2022-12-15T15:08:53.801Z,100482.03
2022-12-15T15:13:05.525Z,100485.97
2022-12-15T15:17:42.665Z,100481.19
2022-12-15T15:21:54.377Z,100483.78
2022-12-15T15:26:05.925Z,100476.66
2022-12-15T15:30:21.504Z,100486.06
2022-12-15T15:34:33.447Z,100483.22
2022-12-15T15:38:46.781Z,100465.69
2022-12-15T15:42:58.440Z,100466.66
2022-12-15T15:47:36.837Z,100469.13
2022-12-15T15:51:48.882Z,100475.88
2022-12-15T15:56:02.272Z,100465.56
2022-12-15T16:00:21.647Z,100462.09
2022-12-15T16:04:33.366Z,100467.06
2022-12-15T16:08:47.392Z,100473.47
2022-12-15T16:13:01.340Z,100466.47
2022-12-15T16:17:14.817Z,100469.94
2022-12-15T16:21:27.888Z,100486.56
2022-12-15T16:25:50.638Z,100485.50
2022-12-15T16:30:06.189Z,100486.78
2022-12-15T16:34:19.184Z,100489.34
2022-12-15T16:38:32.154Z,100503.22
2022-12-15T16:42:48.567Z,100504.00
2022-12-15T16:47:00.358Z,100506.94
2022-12-15T16:51:29.473Z,100500.75
2022-12-15T16:55:42.065Z,100484.75
2022-12-15T16:59:53.700Z,100507.03
2022-12-15T17:04:05.382Z,100504.69
2022-12-15T17:08:29.764Z,100500.47
2022-12-15T17:12:41.715Z,100516.44
2022-12-15T17:16:55.549Z,100513.16
2022-12-15T17:21:13.396Z,100496.59
2022-12-15T17:26:00.877Z,100507.13
2022-12-15T17:30:02.623Z,100512.78
2022-12-15T17:34:30.331Z,100487.13
2022-12-15T17:38:42.127Z,100500.97
2022-12-15T17:42:53.704Z,100499.75
2022-12-15T17:47:07.971Z,100497.72
2022-12-15T17:51:20.323Z,100521.13
2022-12-15T17:55:35.375Z,100526.81
2022-12-15T17:59:47.348Z,100529.09
2022-12-15T18:03:59.160Z,100537.28
2022-12-15T18:08:27.856Z,100551.13
2022-12-15T18:12:39.553Z,100543.13
2022-12-15T18:16:51.204Z,100541.63
2022-12-15T18:21:12.677Z,100556.72
2022-12-15T18:25:30.157Z,100559.69
2022-12-15T18:29:42.020Z,100567.09
2022-12-15T18:34:00.885Z,100569.06
2022-12-15T18:38:23.802Z,100574.03
2022-12-15T18:42:35.561Z,100571.31
2022-12-15T18:46:48.225Z,100567.31
2022-12-15T18:51:02.741Z,100574.94
2022-12-15T18:55:18.941Z,100575.59
2022-12-15T18:59:35.929Z,100575.06
2022-12-15T19:03:47.597Z,100583.16
2022-12-15T19:08:03.050Z,100587.16
2022-12-15T19:12:18.549Z,100594.22
2022-12-15T19:16:53.084Z,100594.50
2022-12-15T19:21:44.386Z,100603.91
2022-12-15T19:25:55.971Z,100611.59
2022-12-15T19:30:18.910Z,100612.47
2022-12-15T19:34:30.968Z,100600.50
2022-12-15T19:38:43.528Z,100610.63
2022-12-15T19:42:55.412Z,100609.63
2022-12-15T19:47:13.507Z,100607.59
2022-12-15T19:51:25.560Z,100607.34
2022-12-15T19:55:37.220Z,100593.69
2022-12-15T19:59:49.050Z,100595.41
2022-12-15T20:04:00.694Z,100582.22
2022-12-15T20:08:22.132Z,100580.78
2022-12-15T20:12:33.869Z,100591.56
2022-12-15T20:16:45.686Z,100598.31
2022-12-15T20:20:59.212Z,100591.56
2022-12-15T20:25:16.968Z,100589.75
2022-12-15T20:29:30.842Z,100596.50
2022-12-15T20:33:47.361Z,100597.31
2022-12-15T20:38:00.264Z,100594.22
2022-12-15T20:42:15.238Z,100589.47
2022-12-15T20:46:35.492Z,100585.53
2022-12-15T20:50:49.196Z,100581.41
2022-12-15T20:55:02.951Z,100594.22
2022-12-15T20:59:36.525Z,100598.00
2022-12-15T21:03:51.853Z,100593.03
2022-12-15T21:08:14.337Z,100594.69
2022-12-15T21:12:27.786Z,100600.53
2022-12-15T21:16:39.562Z,100598.59
2022-12-15T21:20:54.425Z,100593.63
2022-12-15T21:25:22.369Z,100595.28
2022-12-15T21:29:34.966Z,100595.97
2022-12-15T21:33:47.085Z,100599.59
2022-12-15T21:38:01.226Z,100596.94
2022-12-15T21:42:16.019Z,100599.13
2022-12-15T21:46:28.815Z,100597.09
2022-12-15T21:50:43.259Z,100597.06
2022-12-15T21:54:54.949Z,100585.72
2022-12-15T21:59:12.813Z,100584.72
2022-12-15T22:03:24.464Z,100586.28
2022-12-15T22:07:36.108Z,100597.81
2022-12-15T22:11:51.379Z,100589.28
2022-12-15T22:16:03.096Z,100583.31
2022-12-15T22:20:23.236Z,100591.97
2022-12-15T22:24:34.923Z,100589.06
2022-12-15T22:28:46.509Z,100585.84
2022-12-15T22:32:58.151Z,100601.56
2022-12-15T22:37:09.822Z,100596.69
2022-12-15T22:41:22.905Z,100604.88
2022-12-15T22:45:38.258Z,100595.53
2022-12-15T22:49:52.753Z,100593.78
2022-12-15T22:54:17.889Z,100594.53
2022-12-15T22:58:41.650Z,100604.31
2022-12-15T23:02:53.397Z,100618.59
2022-12-15T23:07:10.103Z,100608.25
2022-12-15T23:11:37.167Z,100626.44
2022-12-15T23:16:08.384Z,100628.38
2022-12-15T23:20:20.188Z,100617.06
2022-12-15T23:24:31.839Z,100628.19
2022-12-15T23:28:43.709Z,100630.94
2022-12-15T23:32:55.621Z,100623.59
2022-12-15T23:37:07.461Z,100620.91
2022-12-15T23:41:20.030Z,100634.41
2022-12-15T23:45:31.586Z,100637.75
2022-12-15T23:49:43.178Z,100629.34
2022-12-15T23:53:54.808Z,100628.81
2022-12-15T23:58:06.457Z,100642.31
